createdAt,value
2022-10-05T00:00:22.601Z,11.45
2022-10-05T00:03:32.994Z,11.42
2022-10-05T00:06:41.544Z,11.42
2022-10-05T00:10:05.560Z,11.46
2022-10-05T00:13:17.255Z,11.41
2022-10-05T00:16:27.838Z,11.39
2022-10-05T00:19:45.519Z,11.34
2022-10-05T00:23:00.984Z,11.27
2022-10-05T00:26:18.553Z,11.30
2022-10-05T00:29:34.532Z,11.29
2022-10-05T00:32:42.531Z,11.08
2022-10-05T00:35:51.115Z,11.19
2022-10-05T00:39:08.560Z,11.15
2022-10-05T00:42:45.549Z,11.23
2022-10-05T00:46:03.839Z,11.11
2022-10-05T00:49:45.587Z,11.02
2022-10-05T00:53:16.554Z,10.97
2022-10-05T00:56:46.303Z,11.02
2022-10-05T01:00:12.588Z,11.00
2022-10-05T01:03:28.512Z,10.99
2022-10-05T01:07:03.535Z,10.92
2022-10-05T01:10:41.563Z,10.90
2022-10-05T01:13:53.451Z,10.97
2022-10-05T01:17:15.594Z,10.97
2022-10-05T01:20:41.573Z,10.94
2022-10-05T01:24:16.573Z,10.91
2022-10-05T01:27:46.828Z,10.91
2022-10-05T01:31:07.593Z,10.88
2022-10-05T01:34:37.600Z,10.86
2022-10-05T01:38:04.529Z,10.84
2022-10-05T01:41:27.616Z,10.85
2022-10-05T01:44:51.590Z,10.74
2022-10-05T01:48:19.636Z,10.72
2022-10-05T01:51:40.604Z,10.68
2022-10-05T01:55:10.791Z,10.69
2022-10-05T01:58:41.547Z,10.66
2022-10-05T02:02:10.634Z,10.61
2022-10-05T02:05:30.608Z,10.64
2022-10-05T02:08:43.571Z,10.51
2022-10-05T02:12:10.579Z,10.45
2022-10-05T02:15:31.636Z,10.32
2022-10-05T02:18:42.683Z,10.30
2022-10-05T02:22:05.631Z,10.27
2022-10-05T02:25:17.440Z,10.29
2022-10-05T02:28:31.633Z,10.28
2022-10-05T02:32:00.575Z,10.25
2022-10-05T02:35:15.700Z,10.27
2022-10-05T02:38:40.613Z,10.26
2022-10-05T02:42:04.674Z,10.27
2022-10-05T02:45:24.325Z,10.25
2022-10-05T02:48:54.608Z,10.25
2022-10-05T02:52:28.154Z,10.26
2022-10-05T02:55:52.620Z,10.27
2022-10-05T02:59:29.633Z,10.21
2022-10-05T03:02:48.781Z,10.20
2022-10-05T03:06:06.615Z,10.25
2022-10-05T03:09:26.542Z,10.23
2022-10-05T03:13:04.692Z,10.17
2022-10-05T03:16:39.619Z,10.10
2022-10-05T03:20:03.375Z,10.12
2022-10-05T03:23:20.620Z,10.11
2022-10-05T03:26:47.399Z,10.15
2022-10-05T03:30:11.609Z,10.13
2022-10-05T03:33:34.653Z,10.17
2022-10-05T03:36:53.203Z,10.09
2022-10-05T03:40:20.638Z,10.12
2022-10-05T03:43:59.007Z,10.12
2022-10-05T03:47:26.670Z,10.13
2022-10-05T03:50:52.640Z,10.11
2022-10-05T03:54:05.435Z,10.10
2022-10-05T03:57:26.632Z,10.04
2022-10-05T04:00:37.289Z,10.05
2022-10-05T04:03:52.683Z,10.02
2022-10-05T04:07:08.646Z,9.97
2022-10-05T04:10:19.143Z,10.02
2022-10-05T04:13:50.686Z,10.00
2022-10-05T04:17:12.626Z,10.00
2022-10-05T04:20:28.954Z,10.04
2022-10-05T04:23:52.696Z,10.21
2022-10-05T04:26:58.619Z,10.17
2022-10-05T04:30:21.703Z,10.04
2022-10-05T04:33:38.631Z,9.98
2022-10-05T04:36:50.203Z,9.92
2022-10-05T04:40:29.658Z,9.91
2022-10-05T04:43:50.905Z,9.88
2022-10-05T04:47:22.706Z,9.86
2022-10-05T04:51:04.650Z,9.86
2022-10-05T04:54:24.017Z,9.85
2022-10-05T04:57:57.673Z,9.92
2022-10-05T05:01:31.682Z,9.96
2022-10-05T05:04:55.908Z,9.95
2022-10-05T05:08:38.732Z,9.97
2022-10-05T05:12:07.603Z,9.94
2022-10-05T05:15:39.679Z,9.99
2022-10-05T05:19:14.647Z,10.01
2022-10-05T05:22:34.235Z,9.96
2022-10-05T05:25:58.674Z,9.92
2022-10-05T05:29:24.744Z,9.88
2022-10-05T05:32:51.690Z,9.89
2022-10-05T05:36:28.730Z,9.97
2022-10-05T05:40:06.742Z,9.93
2022-10-05T05:43:31.652Z,9.93
2022-10-05T05:47:03.128Z,9.91
2022-10-05T05:50:37.718Z,10.00
2022-10-05T05:53:50.664Z,9.99
2022-10-05T05:57:08.868Z,10.06
2022-10-05T06:00:36.709Z,10.05
2022-10-05T06:03:58.052Z,10.06
2022-10-05T06:07:17.733Z,10.12
2022-10-05T06:10:44.864Z,10.11
2022-10-05T06:13:59.207Z,10.20
2022-10-05T06:17:23.786Z,10.27
2022-10-05T06:20:41.698Z,10.34
2022-10-05T06:24:10.302Z,11.29
2022-10-05T06:27:33.808Z,11.70
2022-10-05T06:30:58.090Z,12.84
2022-10-05T06:34:22.762Z,12.96
2022-10-05T06:38:08.805Z,13.07
2022-10-05T06:41:37.700Z,12.79
2022-10-05T06:45:01.733Z,13.42
2022-10-05T06:48:35.734Z,13.18
2022-10-05T06:51:57.103Z,12.74
2022-10-05T06:55:22.791Z,12.58
2022-10-05T06:58:49.688Z,12.61
2022-10-05T07:02:16.809Z,13.47
2022-10-05T07:06:01.772Z,13.30
2022-10-05T07:09:41.752Z,13.28
2022-10-05T07:13:16.737Z,14.59
2022-10-05T07:16:29.999Z,14.33
2022-10-05T07:20:01.750Z,13.72
2022-10-05T07:23:24.772Z,13.07
2022-10-05T07:26:46.223Z,12.57
2022-10-05T07:30:12.738Z,12.46
2022-10-05T07:33:30.809Z,13.17
2022-10-05T07:36:54.871Z,12.92
2022-10-05T07:40:36.799Z,13.48
2022-10-05T07:44:02.632Z,13.83
2022-10-05T07:47:35.760Z,14.74
2022-10-05T07:50:59.792Z,14.49
2022-10-05T07:54:26.816Z,14.35
2022-10-05T07:58:00.793Z,14.22
2022-10-05T08:01:26.431Z,14.10
2022-10-05T08:04:56.824Z,13.97
2022-10-05T08:08:31.817Z,13.87
2022-10-05T08:12:02.823Z,13.78
2022-10-05T08:15:23.848Z,13.68
2022-10-05T08:18:56.797Z,13.64
2022-10-05T08:22:05.033Z,13.72
2022-10-05T08:25:32.795Z,13.69
2022-10-05T08:29:13.663Z,13.82
2022-10-05T08:32:24.213Z,13.86
2022-10-05T08:35:45.821Z,14.05
2022-10-05T08:38:49.908Z,14.25
2022-10-05T08:42:24.783Z,14.57
2022-10-05T08:46:12.028Z,14.79
2022-10-05T08:49:42.552Z,14.97
2022-10-05T08:53:21.814Z,15.26
2022-10-05T08:56:43.303Z,15.23
2022-10-05T09:00:17.810Z,15.14
2022-10-05T09:04:05.484Z,14.88
2022-10-05T09:07:46.524Z,14.68
2022-10-05T09:11:10.839Z,14.77
2022-10-05T09:15:20.484Z,15.00
2022-10-05T09:18:53.938Z,15.14
2022-10-05T09:22:09.809Z,15.28
2022-10-05T09:25:23.475Z,15.30
2022-10-05T09:28:40.939Z,15.61
2022-10-05T09:32:25.873Z,15.83
2022-10-05T09:35:50.619Z,15.94
2022-10-05T09:39:35.843Z,16.15
2022-10-05T09:43:10.832Z,16.40
2022-10-05T09:46:45.556Z,16.63
2022-10-05T09:50:29.859Z,16.76
2022-10-05T09:53:57.439Z,16.82
2022-10-05T09:57:30.961Z,16.62
2022-10-05T10:01:09.971Z,16.50
2022-10-05T10:04:35.042Z,16.34
2022-10-05T10:08:20.864Z,16.13
2022-10-05T10:12:00.863Z,16.16
2022-10-05T10:15:27.888Z,16.41
2022-10-05T10:18:53.925Z,16.68
2022-10-05T10:22:22.420Z,16.58
2022-10-05T10:26:00.808Z,16.64
2022-10-05T10:29:32.345Z,16.81
2022-10-05T10:33:16.860Z,16.90
2022-10-05T10:36:44.840Z,16.96
2022-10-05T10:40:23.408Z,16.94
2022-10-05T10:44:07.846Z,16.98
2022-10-05T10:47:39.929Z,17.52
2022-10-05T10:51:19.047Z,17.29
2022-10-05T10:55:08.903Z,17.45
2022-10-05T10:58:36.854Z,17.26
2022-10-05T11:02:20.752Z,17.02
2022-10-05T11:05:57.870Z,17.04
2022-10-05T11:09:30.904Z,17.34
2022-10-05T11:13:17.748Z,17.40
2022-10-05T11:16:52.103Z,17.55
2022-10-05T11:20:22.372Z,17.77
2022-10-05T11:24:12.868Z,18.59
2022-10-05T11:27:48.953Z,19.24
2022-10-05T11:31:25.383Z,21.97
2022-10-05T11:35:02.263Z,24.47
2022-10-05T11:39:02.609Z,24.97
2022-10-05T11:42:23.626Z,24.65
2022-10-05T11:46:02.943Z,25.07
2022-10-05T11:49:49.162Z,24.68
2022-10-05T11:53:03.780Z,25.17
2022-10-05T11:56:43.471Z,25.42
2022-10-05T12:00:20.698Z,26.94
2022-10-05T12:03:53.648Z,26.63
2022-10-05T12:07:25.019Z,25.93
2022-10-05T12:11:07.911Z,24.48
2022-10-05T12:14:44.929Z,23.70
2022-10-05T12:18:08.928Z,22.68
2022-10-05T12:21:28.558Z,22.11
2022-10-05T12:25:03.960Z,22.03
2022-10-05T12:28:17.641Z,22.33
2022-10-05T12:31:39.184Z,22.77
2022-10-05T12:35:36.653Z,23.22
2022-10-05T12:39:02.683Z,22.78
2022-10-05T12:42:41.586Z,22.03
2022-10-05T12:46:07.966Z,21.43
2022-10-05T12:49:40.472Z,21.65
2022-10-05T12:53:09.961Z,20.50
2022-10-05T12:56:45.911Z,19.85
2022-10-05T13:00:03.651Z,19.79
2022-10-05T13:03:35.960Z,19.57
2022-10-05T13:07:08.980Z,19.56
2022-10-05T13:11:14.871Z,19.53
2022-10-05T13:14:53.960Z,19.53
2022-10-05T13:18:22.059Z,19.40
2022-10-05T13:21:45.738Z,19.09
2022-10-05T13:25:07.951Z,18.99
2022-10-05T13:28:22.270Z,18.68
2022-10-05T13:31:37.987Z,18.89
2022-10-05T13:35:11.411Z,18.89
2022-10-05T13:38:38.615Z,19.27
2022-10-05T13:42:06.957Z,18.89
2022-10-05T13:45:33.051Z,18.89
2022-10-05T13:49:01.798Z,18.85
2022-10-05T13:52:35.987Z,18.77
2022-10-05T13:55:58.850Z,18.58
2022-10-05T13:59:38.138Z,18.59
2022-10-05T14:02:51.592Z,18.74
2022-10-05T14:06:01.889Z,18.82
2022-10-05T14:09:34.998Z,18.73
2022-10-05T14:12:44.598Z,18.46
2022-10-05T14:16:19.663Z,18.52
2022-10-05T14:19:34.031Z,18.53
2022-10-05T14:22:43.021Z,18.51
2022-10-05T14:25:58.036Z,18.52
2022-10-05T14:29:19.008Z,18.49
2022-10-05T14:32:38.984Z,18.41
2022-10-05T14:36:01.058Z,18.60
2022-10-05T14:39:03.451Z,18.44
2022-10-05T14:42:23.128Z,18.29
2022-10-05T14:45:27.197Z,18.21
2022-10-05T14:48:49.020Z,18.01
2022-10-05T14:52:04.010Z,17.96
2022-10-05T14:55:23.004Z,17.87
2022-10-05T14:58:55.057Z,17.76
2022-10-05T15:02:34.197Z,17.90
2022-10-05T15:05:49.590Z,17.81
2022-10-05T15:09:25.031Z,17.72
2022-10-05T15:12:42.503Z,17.66
2022-10-05T15:16:02.113Z,17.61
2022-10-05T15:19:25.031Z,17.55
2022-10-05T15:22:39.914Z,17.44
2022-10-05T15:26:18.247Z,17.38
2022-10-05T15:29:51.346Z,17.34
2022-10-05T15:33:15.156Z,17.31
2022-10-05T15:36:45.992Z,17.27
2022-10-05T15:40:01.061Z,17.22
2022-10-05T15:43:15.370Z,17.16
2022-10-05T15:46:41.995Z,17.11
2022-10-05T15:50:05.988Z,17.08
2022-10-05T15:53:31.049Z,17.04
2022-10-05T15:56:52.008Z,16.99
2022-10-05T16:00:13.853Z,16.96
2022-10-05T16:03:52.022Z,16.92
2022-10-05T16:07:02.703Z,16.90
2022-10-05T16:10:24.111Z,16.90
2022-10-05T16:14:06.061Z,16.87
2022-10-05T16:17:22.547Z,16.80
2022-10-05T16:20:55.075Z,16.74
2022-10-05T16:24:29.043Z,16.70
2022-10-05T16:28:05.328Z,16.68
2022-10-05T16:31:28.069Z,16.62
2022-10-05T16:34:57.736Z,16.56
2022-10-05T16:38:42.037Z,16.51
2022-10-05T16:42:18.126Z,16.49
2022-10-05T16:45:45.612Z,16.42
2022-10-05T16:49:14.026Z,16.37
2022-10-05T16:52:32.091Z,16.27
2022-10-05T16:55:41.834Z,16.21
2022-10-05T16:59:26.318Z,16.18
2022-10-05T17:03:11.069Z,16.17
2022-10-05T17:06:34.887Z,16.13
2022-10-05T17:10:09.118Z,16.13
2022-10-05T17:13:54.148Z,16.06
2022-10-05T17:17:21.927Z,16.02
2022-10-05T17:20:59.120Z,15.98
2022-10-05T17:24:39.082Z,15.94
2022-10-05T17:27:52.569Z,15.92
2022-10-05T17:31:20.167Z,15.92
2022-10-05T17:34:28.543Z,15.90
2022-10-05T17:37:48.094Z,15.90
2022-10-05T17:41:26.117Z,15.84
2022-10-05T17:44:34.771Z,15.81
2022-10-05T17:48:08.113Z,15.77
2022-10-05T17:51:49.772Z,15.72
2022-10-05T17:55:09.100Z,15.70
2022-10-05T17:58:57.100Z,15.64
2022-10-05T18:02:25.776Z,15.61
2022-10-05T18:05:41.103Z,15.64
2022-10-05T18:08:43.035Z,15.64
2022-10-05T18:12:21.119Z,15.63
2022-10-05T18:15:51.111Z,15.56
2022-10-05T18:18:59.966Z,15.49
2022-10-05T18:22:34.099Z,15.49
2022-10-05T18:25:55.143Z,15.54
2022-10-05T18:29:23.676Z,15.43
2022-10-05T18:33:00.171Z,15.39
2022-10-05T18:36:29.953Z,15.32
2022-10-05T18:40:00.310Z,15.26
2022-10-05T18:43:28.168Z,15.20
2022-10-05T18:46:56.768Z,15.16
2022-10-05T18:50:25.160Z,15.14
2022-10-05T18:54:03.175Z,15.11
2022-10-05T18:57:36.759Z,15.09
2022-10-05T19:01:23.247Z,15.04
2022-10-05T19:05:01.131Z,15.00
2022-10-05T19:08:23.368Z,14.96
2022-10-05T19:11:53.133Z,14.91
2022-10-05T19:15:12.476Z,14.83
2022-10-05T19:18:53.176Z,14.83
2022-10-05T19:22:18.876Z,14.77
2022-10-05T19:25:59.140Z,14.70
2022-10-05T19:29:39.595Z,14.70
2022-10-05T19:33:03.252Z,14.64
2022-10-05T19:36:37.190Z,14.62
2022-10-05T19:40:09.551Z,14.59
2022-10-05T19:43:31.825Z,14.57
2022-10-05T19:47:02.172Z,14.61
2022-10-05T19:50:32.194Z,14.56
2022-10-05T19:53:45.688Z,14.52
2022-10-05T19:57:01.155Z,14.48
2022-10-05T20:00:03.771Z,14.45
2022-10-05T20:03:25.139Z,14.43
2022-10-05T20:06:41.148Z,14.42
2022-10-05T20:09:57.295Z,14.37
2022-10-05T20:13:28.160Z,14.31
2022-10-05T20:16:39.314Z,14.29
2022-10-05T20:19:47.854Z,14.30
2022-10-05T20:23:27.207Z,14.28
2022-10-05T20:26:43.978Z,14.27
2022-10-05T20:30:00.179Z,14.26
2022-10-05T20:33:08.145Z,14.25
2022-10-05T20:36:16.810Z,14.20
2022-10-05T20:39:31.154Z,14.21
2022-10-05T20:42:32.922Z,14.21
2022-10-05T20:45:47.184Z,14.15
2022-10-05T20:48:49.137Z,14.13
2022-10-05T20:52:05.203Z,14.06
2022-10-05T20:55:20.247Z,14.03
2022-10-05T20:58:22.119Z,13.99
2022-10-05T21:01:37.190Z,14.01
2022-10-05T21:04:46.704Z,14.01
2022-10-05T21:07:55.198Z,13.98
2022-10-05T21:11:17.203Z,13.96
2022-10-05T21:14:25.195Z,13.92
2022-10-05T21:17:40.249Z,13.90
2022-10-05T21:20:48.906Z,13.87
2022-10-05T21:23:57.250Z,13.84
2022-10-05T21:27:06.381Z,13.78
2022-10-05T21:30:21.221Z,13.71
2022-10-05T21:33:22.974Z,13.69
2022-10-05T21:36:37.232Z,13.65
2022-10-05T21:39:39.030Z,13.51
2022-10-05T21:42:54.231Z,13.61
2022-10-05T21:46:03.137Z,13.59
2022-10-05T21:49:17.475Z,13.58
2022-10-05T21:52:34.244Z,13.52
2022-10-05T21:55:53.235Z,13.48
2022-10-05T21:58:55.170Z,13.46
2022-10-05T22:02:10.597Z,13.45
2022-10-05T22:05:12.548Z,13.42
2022-10-05T22:08:32.515Z,13.39
2022-10-05T22:11:47.268Z,13.34
2022-10-05T22:14:56.256Z,13.31
2022-10-05T22:18:11.264Z,13.29
2022-10-05T22:21:20.116Z,13.23
2022-10-05T22:24:28.276Z,13.23
2022-10-05T22:27:37.123Z,13.25
2022-10-05T22:30:53.315Z,13.25
2022-10-05T22:34:01.231Z,13.24
2022-10-05T22:37:19.353Z,13.17
2022-10-05T22:40:29.281Z,13.11
2022-10-05T22:43:38.216Z,13.04
2022-10-05T22:46:53.271Z,13.01
2022-10-05T22:49:55.087Z,13.02
2022-10-05T22:53:10.280Z,13.02
2022-10-05T22:56:25.275Z,13.02
2022-10-05T22:59:27.047Z,13.00
2022-10-05T23:02:43.337Z,12.96
2022-10-05T23:05:45.227Z,12.96
2022-10-05T23:09:01.248Z,12.97
2022-10-05T23:12:16.584Z,12.92
2022-10-05T23:15:25.293Z,12.92
2022-10-05T23:18:34.428Z,12.90
2022-10-05T23:21:42.244Z,12.90
2022-10-05T23:24:51.679Z,12.89
2022-10-05T23:28:08.306Z,12.87
2022-10-05T23:31:10.098Z,12.87
2022-10-05T23:34:25.326Z,12.90
2022-10-05T23:37:37.407Z,12.82
2022-10-05T23:40:46.260Z,12.75
2022-10-05T23:43:54.884Z,12.75
2022-10-05T23:47:03.353Z,12.73
2022-10-05T23:50:15.534Z,12.74
2022-10-05T23:53:31.302Z,12.77
2022-10-05T23:56:40.300Z,12.77
2022-10-05T23:59:48.852Z,12.74
